Time;durP1;ratioP1;P1;durP2;ratioP2;P2;SDS_P1;SDS_P2;PMS_P1;PMS_P2;Temp;Humidity;BMP_temperature;BMP_pressure;BME280_temperature;BME280_humidity;BME280_pressure;Samples;Min_cycle;Max_cycle;Signal;HPM_P1;HPM_P2
2022/08/31 00:05:26;;;;;;;2.97;0.90;;;;;;;17.76;59.90;100665.75;5052799;28;20052;-79
2022/08/31 00:07:52;;;;;;;;;;;;;;;17.70;60.26;100673.53;5052880;28;20140;-79
2022/08/31 00:10:18;;;;;;;3.80;1.08;;;;;;;17.66;60.48;100667.97;5055979;28;19999;-79
2022/08/31 00:12:45;;;;;;;;;;;;;;;17.71;60.85;100664.91;5056838;28;20028;-79
2022/08/31 00:15:12;;;;;;;;;;;;;;;17.71;60.98;100667.66;5056795;28;19919;-79
2022/08/31 00:17:39;;;;;;;2.38;0.90;;;;;;;17.73;61.44;100675.56;5056037;28;19916;-79
2022/08/31 00:20:06;;;;;;;1.98;0.85;;;;;;;17.66;61.79;100673.47;5056425;28;20033;-79
2022/08/31 00:22:32;;;;;;;2.83;1.00;;;;;;;17.64;61.91;100675.78;5038295;28;20479;-78
2022/08/31 00:24:57;;;;;;;3.08;0.90;;;;;;;17.60;62.30;100674.91;5056739;28;20029;-78
2022/08/31 00:27:22;;;;;;;;;;;;;;;17.56;62.86;100673.28;5056488;28;20040;-79
2022/08/31 00:29:48;;;;;;;2.37;0.80;;;;;;;17.53;63.44;100674.81;5056133;28;19913;-78
2022/08/31 00:32:13;;;;;;;2.65;1.05;;;;;;;17.55;63.51;100675.25;5056283;28;20271;-79
2022/08/31 00:34:38;;;;;;;1.85;0.70;;;;;;;17.52;63.89;100675.97;5056229;28;20064;-79
2022/08/31 00:37:04;;;;;;;;;;;;;;;17.55;63.85;100675.25;5056306;28;20037;-79
2022/08/31 00:39:29;;;;;;;1.90;0.70;;;;;;;17.67;63.28;100679.75;5056060;28;19912;-79
2022/08/31 00:41:55;;;;;;;2.60;1.00;;;;;;;17.62;63.95;100671.78;5056209;28;20274;-79
2022/08/31 00:44:20;;;;;;;;;;;;;;;17.54;64.37;100675.59;5056352;28;20041;-79
2022/08/31 00:46:46;;;;;;;2.72;0.90;;;;;;;17.42;65.12;100671.88;5055672;28;20299;-78
2022/08/31 00:49:16;;;;;;;;;;;;;;;17.43;65.32;100683.69;5056212;28;20025;-79
2022/08/31 00:51:44;;;;;;;3.20;0.80;;;;;;;17.48;64.93;100679.84;5055515;28;19913;-79
2022/08/31 00:54:12;;;;;;;2.67;0.90;;;;;;;17.33;65.79;100681.56;5055502;28;20112;-78
2022/08/31 00:56:39;;;;;;;3.30;1.33;;;;;;;17.30;65.65;100677.59;5055789;28;20378;-78
2022/08/31 00:59:05;;;;;;;2.20;0.88;;;;;;;17.30;66.23;100676.75;5055461;28;20094;-78
2022/08/31 01:01:31;;;;;;;2.13;0.85;;;;;;;17.33;66.38;100674.09;5055452;28;20033;-78
2022/08/31 01:03:57;;;;;;;2.80;0.88;;;;;;;17.32;66.49;100677.22;5055146;28;20128;-79
2022/08/31 01:06:22;;;;;;;;;;;;;;;17.38;66.21;100673.78;5055590;28;20103;-79
2022/08/31 01:08:49;;;;;;;4.10;1.65;;;;;;;17.43;66.19;100672.66;5055327;28;19913;-79
2022/08/31 01:11:17;;;;;;;2.25;0.90;;;;;;;17.42;66.25;100668.31;5055475;28;20104;-79
2022/08/31 01:13:43;;;;;;;2.33;0.90;;;;;;;17.31;66.76;100673.66;5055392;28;20533;-79
2022/08/31 01:16:14;;;;;;;1.85;0.80;;;;;;;17.23;67.40;100671.13;5055320;28;20057;-78
2022/08/31 01:18:41;;;;;;;1.75;0.70;;;;;;;17.27;67.34;100677.50;5055000;28;20036;-78
2022/08/31 01:21:33;;;;;;;2.28;0.80;;;;;;;17.32;67.11;100682.72;5054063;28;20033;-78
2022/08/31 01:24:01;;;;;;;2.15;0.82;;;;;;;17.26;67.61;100679.44;5054950;28;20388;-79
2022/08/31 01:26:29;;;;;;;2.53;0.90;;;;;;;17.22;67.72;100681.34;5054890;28;20029;-78
2022/08/31 01:29:00;;;;;;;2.95;0.80;;;;;;;17.13;68.12;100684.34;5055079;28;20041;-79
2022/08/31 01:31:41;;;;;;;2.13;0.80;;;;;;;17.12;68.27;100681.94;5054791;28;20060;-79
2022/08/31 01:34:06;;;;;;;2.30;0.90;;;;;;;17.08;68.51;100676.38;5054726;28;20048;-78
2022/08/31 01:36:34;;;;;;;2.25;0.93;;;;;;;17.01;68.71;100676.25;5054694;28;20033;-79
2022/08/31 01:39:00;;;;;;;25.35;3.15;;;;;;;17.02;68.88;100675.09;5054628;28;20530;-78
2022/08/31 01:41:25;;;;;;;3.40;1.20;;;;;;;17.05;68.88;100681.81;5054846;28;20029;-78
2022/08/31 01:43:51;;;;;;;;;;;;;;;17.06;68.92;100684.19;5055253;28;20470;-79
2022/08/31 01:46:17;;;;;;;2.95;1.00;;;;;;;16.97;69.27;100675.41;5036933;28;19909;-79
2022/08/31 01:48:44;;;;;;;1.75;0.88;;;;;;;16.90;69.49;100679.97;5054690;28;20353;-78
2022/08/31 01:51:13;;;;;;;2.15;0.80;;;;;;;16.79;69.91;100675.03;5054375;28;20029;-79
2022/08/31 01:53:39;;;;;;;2.17;0.93;;;;;;;16.86;69.73;100674.38;5054381;28;20044;-79
2022/08/31 01:56:09;;;;;;;;;;;;;;;16.89;69.83;100672.88;5055030;28;20051;-79
2022/08/31 01:58:34;;;;;;;2.05;0.90;;;;;;;16.89;69.92;100681.13;5054560;28;20008;-78
2022/08/31 02:01:00;;;;;;;2.87;1.23;;;;;;;16.84;70.08;100677.50;5054223;28;20107;-78
2022/08/31 02:03:25;;;;;;;2.03;0.80;;;;;;;16.78;70.41;100683.66;5054354;28;20584;-79
2022/08/31 02:05:50;;;;;;;1.50;0.80;;;;;;;16.70;70.67;100682.72;5054082;28;20116;-77
2022/08/31 02:08:16;;;;;;;2.10;0.80;;;;;;;16.68;70.90;100684.25;5053885;28;20357;-78
2022/08/31 02:10:41;;;;;;;2.13;0.80;;;;;;;16.73;70.71;100687.50;5054148;28;20342;-77
2022/08/31 02:13:07;;;;;;;1.35;0.70;;;;;;;16.70;70.91;100681.94;5054296;28;20029;-77
2022/08/31 02:15:32;;;;;;;1.73;0.63;;;;;;;16.74;70.65;100683.56;5054183;28;20025;-77
2022/08/31 02:17:58;;;;;;;;;;;;;;;16.70;70.93;100685.47;5054542;28;20044;-77
2022/08/31 02:20:24;;;;;;;3.78;1.23;;;;;;;16.64;71.09;100677.84;5054109;28;19912;-77
2022/08/31 02:22:49;;;;;;;3.10;0.82;;;;;;;16.70;70.96;100676.44;5054080;28;20033;-78
2022/08/31 02:25:15;;;;;;;;;;;;;;;16.66;71.07;100679.09;5054223;28;20068;-78
2022/08/31 02:27:42;;;;;;;2.00;0.80;;;;;;;16.66;71.22;100686.53;5053894;28;19916;-79
2022/08/31 02:30:11;;;;;;;1.85;0.75;;;;;;;16.60;71.22;100683.25;5053893;28;20112;-78
2022/08/31 02:32:36;;;;;;;2.00;0.70;;;;;;;16.47;72.02;100690.06;5053420;28;20036;-78
2022/08/31 02:35:03;;;;;;;2.90;0.90;;;;;;;16.49;71.98;100688.56;5053972;28;20479;-78
2022/08/31 02:37:28;;;;;;;2.28;0.73;;;;;;;16.53;72.04;100694.91;5053482;28;20286;-78
2022/08/31 02:39:53;;;;;;;2.53;0.83;;;;;;;16.58;71.51;100690.28;5053664;28;20028;-78
2022/08/31 02:42:19;;;;;;;2.00;0.80;;;;;;;16.76;71.02;100689.50;5053948;28;20259;-78
2022/08/31 02:44:44;;;;;;;2.45;0.93;;;;;;;16.81;70.90;100688.44;5035748;28;20268;-78
2022/08/31 02:47:10;;;;;;;2.80;0.70;;;;;;;16.65;71.47;100688.50;5053356;28;20037;-78
2022/08/31 02:49:35;;;;;;;;;;;;;;;16.52;71.99;100682.31;5053799;28;20060;-78
2022/08/31 02:52:00;;;;;;;4.97;1.00;;;;;;;16.51;72.00;100682.69;5053489;28;20344;-78
2022/08/31 02:54:25;;;;;;;;;;;;;;;16.42;72.60;100687.59;5053880;28;20033;-78
2022/08/31 02:56:51;;;;;;;2.50;0.80;;;;;;;16.47;72.37;100696.38;5053149;28;19999;-78
2022/08/31 02:59:18;;;;;;;;;;;;;;;16.58;71.91;100685.56;5053722;28;20037;-78
2022/08/31 03:01:43;;;;;;;3.97;0.88;;;;;;;16.49;72.30;100694.06;5053158;28;19923;-78
2022/08/31 03:04:09;;;;;;;;;;;;;;;16.61;71.76;100687.59;5053592;28;20048;-78
2022/08/31 03:06:34;;;;;;;2.03;0.80;;;;;;;16.59;72.02;100689.13;5052975;28;19952;-78
2022/08/31 03:08:59;;;;;;;;;;;;;;;16.53;72.12;100683.91;5035535;28;20036;-78
2022/08/31 03:11:26;;;;;;;2.33;0.80;;;;;;;16.48;72.57;100681.47;5053147;28;20248;-78
2022/08/31 03:13:51;;;;;;;;;;;;;;;16.41;72.72;100681.28;5053503;28;20033;-78
2022/08/31 03:16:18;;;;;;;2.28;0.80;;;;;;;16.33;72.91;100682.31;5035178;28;19924;-78
2022/08/31 03:18:44;;;;;;;2.05;0.80;;;;;;;16.39;72.84;100683.63;5053387;28;20037;-78
2022/08/31 03:21:09;;;;;;;3.35;0.80;;;;;;;16.44;72.62;100677.81;5052998;28;20120;-79
2022/08/31 03:23:35;;;;;;;2.50;1.00;;;;;;;16.35;73.01;100681.94;5052762;28;20502;-78
2022/08/31 03:26:01;;;;;;;1.63;0.80;;;;;;;16.38;72.85;100676.53;5052643;28;20244;-78
2022/08/31 03:28:27;;;;;;;1.20;0.70;;;;;;;16.42;72.79;100671.88;5052804;28;20148;-78
2022/08/31 03:30:52;;;;;;;1.50;0.80;;;;;;;16.37;72.97;100680.44;5052705;28;20163;-78
2022/08/31 03:33:17;;;;;;;2.15;0.93;;;;;;;16.42;72.72;100674.63;5052890;28;20413;-78
2022/08/31 03:35:44;;;;;;;2.23;0.80;;;;;;;16.32;73.14;100675.22;5052564;28;20043;-78
2022/08/31 03:38:11;;;;;;;2.58;1.20;;;;;;;16.32;73.15;100677.97;5052759;28;20309;-78
2022/08/31 03:40:39;;;;;;;3.35;0.80;;;;;;;16.46;72.80;100681.03;5052551;28;20048;-79
2022/08/31 03:43:06;;;;;;;2.03;0.93;;;;;;;16.37;72.88;100677.69;5051833;28;20033;-78
2022/08/31 03:45:33;;;;;;;1.90;0.77;;;;;;;16.27;73.24;100674.69;5052926;28;20104;-78
2022/08/31 03:47:59;;;;;;;1.95;0.88;;;;;;;16.14;73.59;100677.59;5052624;28;20040;-79
2022/08/31 03:50:24;;;;;;;2.22;0.90;;;;;;;16.12;73.89;100684.56;5052694;28;20033;-78
2022/08/31 03:52:49;;;;;;;1.80;0.77;;;;;;;16.12;74.13;100671.63;5052625;28;20127;-78
2022/08/31 03:55:15;;;;;;;;;;;;;;;16.16;73.70;100679.97;5052974;28;20047;-79
2022/08/31 03:57:40;;;;;;;2.73;0.90;;;;;;;16.30;73.51;100680.28;5052321;28;19978;-78
2022/08/31 04:00:06;;;;;;;2.47;0.88;;;;;;;16.24;73.40;100676.22;5052588;28;20256;-78
2022/08/31 04:02:35;;;;;;;2.03;0.80;;;;;;;16.16;73.67;100677.22;5035032;28;20037;-79
2022/08/31 04:05:00;;;;;;;2.83;0.77;;;;;;;15.94;74.46;100678.66;5052720;28;20108;-77
2022/08/31 04:07:26;;;;;;;2.17;0.80;;;;;;;15.90;74.60;100673.09;5052362;28;20033;-78
2022/08/31 04:09:51;;;;;;;2.70;1.00;;;;;;;15.93;74.64;100677.06;5052531;28;20745;-78
2022/08/31 04:12:17;;;;;;;3.77;1.10;;;;;;;16.08;74.15;100668.00;5052013;28;20464;-79
2022/08/31 04:14:43;;;;;;;2.17;0.88;;;;;;;15.98;74.18;100673.28;5052114;28;20259;-79
2022/08/31 04:17:10;;;;;;;2.92;1.10;;;;;;;15.91;74.59;100668.41;5052234;28;20029;-78
2022/08/31 04:19:36;;;;;;;2.53;1.10;;;;;;;15.89;74.70;100671.50;5052294;28;20044;-79
2022/08/31 04:22:01;;;;;;;2.13;1.00;;;;;;;15.92;74.65;100673.53;5051981;28;20474;-79
2022/08/31 04:24:28;;;;;;;3.42;1.00;;;;;;;15.82;74.88;100678.78;5034157;28;20414;-79
2022/08/31 04:26:53;;;;;;;2.00;0.90;;;;;;;15.83;75.00;100678.44;5051819;28;20076;-79
2022/08/31 04:29:19;;;;;;;2.58;1.05;;;;;;;15.87;74.73;100684.81;5051544;28;20468;-79
2022/08/31 04:31:44;;;;;;;;;;;;;;;15.81;74.97;100686.25;5052156;28;20087;-78
2022/08/31 04:34:09;;;;;;;1.85;0.70;;;;;;;15.85;74.98;100687.13;5051876;28;19961;-78
2022/08/31 04:36:36;;;;;;;;;;;;;;;15.90;74.69;100680.53;5052299;28;20082;-79
2022/08/31 04:39:03;;;;;;;2.60;1.10;;;;;;;15.73;75.18;100684.47;5051769;28;19960;-80
2022/08/31 04:41:31;;;;;;;2.85;1.13;;;;;;;15.71;75.33;100686.75;5051489;28;20317;-80
2022/08/31 04:43:58;;;;;;;3.03;1.30;;;;;;;15.71;75.43;100691.47;5051593;28;20028;-79
2022/08/31 04:46:25;;;;;;;3.17;1.10;;;;;;;15.76;75.17;100688.44;5052594;28;20109;-79
2022/08/31 04:48:51;;;;;;;2.83;1.17;;;;;;;15.77;75.03;100701.81;5053395;28;20025;-83
2022/08/31 04:51:20;;;;;;;1.75;0.75;;;;;;;15.75;75.08;100698.63;5056286;28;20029;-84
2022/08/31 04:53:47;;;;;;;4.05;1.20;;;;;;;15.77;75.00;100695.53;5055695;28;20033;-85
2022/08/31 04:56:19;;;;;;;2.65;0.90;;;;;;;15.78;75.18;100706.16;5057650;28;20033;-83
2022/08/31 04:58:47;;;;;;;1.90;0.90;;;;;;;15.82;74.81;100704.31;5057146;28;20029;-79
2022/08/31 05:01:15;;;;;;;4.18;1.58;;;;;;;15.84;74.80;100703.94;5055919;28;20468;-79
2022/08/31 05:03:41;;;;;;;3.33;1.10;;;;;;;15.84;74.49;100696.50;5055050;28;20068;-80
2022/08/31 05:06:12;;;;;;;2.20;1.00;;;;;;;15.71;75.00;100697.75;5055547;28;20079;-79
2022/08/31 05:08:38;;;;;;;2.08;0.85;;;;;;;15.84;74.29;100691.00;5054903;28;20041;-79
2022/08/31 05:11:11;;;;;;;2.70;0.90;;;;;;;15.74;74.59;100691.53;5055543;28;20032;-79
2022/08/31 05:13:36;;;;;;;3.97;1.40;;;;;;;15.76;74.53;100700.22;5054898;28;20668;-79
2022/08/31 05:16:04;;;;;;;3.60;1.40;;;;;;;15.60;75.00;100696.69;5054742;28;20139;-80
2022/08/31 05:18:30;;;;;;;3.00;1.08;;;;;;;15.57;75.07;100695.41;5054926;28;20067;-80
2022/08/31 05:20:55;;;;;;;3.25;1.45;;;;;;;15.69;74.65;100697.31;5054528;28;20060;-80
2022/08/31 05:23:20;;;;;;;3.42;1.20;;;;;;;15.64;74.59;100692.88;5055172;28;20033;-80
2022/08/31 05:25:46;;;;;;;2.95;1.33;;;;;;;15.51;74.94;100696.84;5037259;28;20090;-79
2022/08/31 05:28:11;;;;;;;;;;;;;;;15.42;75.43;100709.13;5037492;28;20025;-79
2022/08/31 05:30:36;;;;;;;3.83;1.37;;;;;;;15.49;75.20;100703.84;5037270;28;19967;-79
2022/08/31 05:33:02;;;;;;;3.75;1.60;;;;;;;15.56;74.88;100701.25;5054528;28;20267;-79
2022/08/31 05:35:30;;;;;;;2.42;0.93;;;;;;;15.48;74.90;100708.53;5055252;28;20380;-79
2022/08/31 05:37:55;;;;;;;3.63;1.10;;;;;;;15.48;74.79;100705.00;5036629;28;20033;-80
2022/08/31 05:40:26;;;;;;;2.30;1.10;;;;;;;15.44;74.95;100709.56;5057227;28;20028;-79
2022/08/31 05:42:51;;;;;;;2.47;1.00;;;;;;;15.39;74.98;100712.56;5055406;28;20025;-79
2022/08/31 05:45:17;;;;;;;2.95;1.10;;;;;;;15.39;75.11;100712.56;5054833;28;20444;-80
2022/08/31 05:47:43;;;;;;;4.97;1.10;;;;;;;15.42;74.72;100718.16;5054362;28;20582;-80
2022/08/31 05:50:09;;;;;;;4.43;1.92;;;;;;;15.44;74.51;100720.53;5054174;28;20071;-79
2022/08/31 05:52:34;;;;;;;;;;;;;;;15.46;74.28;100723.75;5054515;28;20036;-78
2022/08/31 05:54:59;;;;;;;3.80;1.50;;;;;;;15.42;74.36;100717.34;5035935;28;20248;-79
2022/08/31 05:57:24;;;;;;;;;;;;;;;15.36;74.55;100719.56;5054399;28;20091;-79
2022/08/31 05:59:50;;;;;;;4.95;1.83;;;;;;;15.40;74.36;100714.97;5053990;28;20300;-79
2022/08/31 06:02:15;;;;;;;3.87;1.20;;;;;;;15.42;74.24;100718.16;5036266;28;20033;-79
2022/08/31 06:04:40;;;;;;;2.67;1.23;;;;;;;15.39;74.38;100718.06;5053992;28;20299;-80
2022/08/31 06:07:06;;;;;;;4.00;1.00;;;;;;;15.60;73.67;100721.38;5053421;28;20033;-81
2022/08/31 06:09:31;;;;;;;3.33;1.10;;;;;;;15.73;72.95;100727.59;5053651;28;20370;-81
2022/08/31 06:11:56;;;;;;;;;;;;;;;15.74;72.88;100719.00;5054216;28;20043;-81
2022/08/31 06:14:22;;;;;;;2.55;1.15;;;;;;;15.67;72.83;100724.31;5053887;28;19955;-79
2022/08/31 06:16:47;;;;;;;5.53;1.55;;;;;;;15.56;73.29;100718.53;5053716;28;20479;-80
2022/08/31 06:19:12;;;;;;;5.05;1.70;;;;;;;15.55;73.55;100721.63;5053828;28;20036;-79
2022/08/31 06:21:41;;;;;;;2.97;1.23;;;;;;;15.72;72.82;100724.03;5053521;28;20099;-80
2022/08/31 06:24:10;;;;;;;3.65;1.30;;;;;;;15.87;72.44;100720.50;5053657;28;20123;-78
2022/08/31 06:26:37;;;;;;;3.67;1.10;;;;;;;15.99;71.85;100732.56;5053164;28;20086;-79
2022/08/31 06:29:05;;;;;;;2.72;1.00;;;;;;;16.06;71.54;100730.75;5053378;28;20372;-79
2022/08/31 06:31:38;;;;;;;3.03;1.20;;;;;;;16.05;71.49;100722.88;5053364;28;20029;-78
2022/08/31 06:34:05;;;;;;;3.45;1.50;;;;;;;15.98;71.84;100736.44;5053032;28;20476;-78
2022/08/31 06:36:32;;;;;;;3.15;1.20;;;;;;;16.04;71.83;100726.78;5053564;28;20452;-80
2022/08/31 06:38:59;;;;;;;2.10;1.05;;;;;;;16.06;71.63;100727.22;5052895;28;20033;-79
2022/08/31 06:41:28;;;;;;;4.28;1.65;;;;;;;16.12;71.22;100731.28;5053100;28;20033;-80
2022/08/31 06:43:54;;;;;;;6.18;1.55;;;;;;;15.97;71.82;100734.84;5035209;28;20436;-80
2022/08/31 06:46:21;;;;;;;2.88;1.15;;;;;;;16.12;71.38;100736.75;5053053;28;20032;-80
2022/08/31 06:48:49;;;;;;;3.55;1.23;;;;;;;16.03;71.66;100739.72;5052728;28;20033;-78
2022/08/31 06:51:15;;;;;;;2.42;1.00;;;;;;;15.95;72.06;100733.22;5052698;28;20142;-80
2022/08/31 06:53:41;;;;;;;3.25;1.10;;;;;;;16.06;71.62;100740.94;5053159;28;20039;-80
2022/08/31 06:56:10;;;;;;;3.95;1.38;;;;;;;16.16;71.35;100740.41;5052640;28;20037;-80
2022/08/31 06:58:35;;;;;;;7.80;2.13;;;;;;;16.36;70.82;100741.25;5034666;28;20041;-79
2022/08/31 07:01:10;;;;;;;5.65;2.38;;;;;;;16.57;70.42;100743.66;5052307;28;20029;-80
2022/08/31 07:03:37;;;;;;;3.08;1.58;;;;;;;16.68;69.59;100745.53;5052402;28;20041;-82
2022/08/31 07:06:09;;;;;;;2.63;1.05;;;;;;;16.95;69.03;100743.72;5035780;28;20081;-83
2022/08/31 07:08:35;;;;;;;3.72;1.40;;;;;;;16.83;68.68;100741.13;5037299;28;20418;-82
2022/08/31 07:11:02;;;;;;;3.88;1.30;;;;;;;16.96;68.30;100748.06;5055055;28;20025;-85
2022/08/31 07:13:28;;;;;;;6.00;1.20;;;;;;;16.82;68.78;100739.53;5054634;28;20162;-83
2022/08/31 07:16:08;;;;;;;2.70;1.23;;;;;;;16.75;69.11;100753.13;5036748;28;20124;-83
2022/08/31 07:18:34;;;;;;;3.75;1.52;;;;;;;16.76;69.51;100749.22;5053252;28;20041;-83
2022/08/31 07:21:09;;;;;;;3.03;1.13;;;;;;;16.66;69.70;100758.03;5035718;28;20383;-82
2022/08/31 07:23:36;;;;;;;4.18;1.48;;;;;;;16.71;69.26;100752.25;5053984;28;20032;-84
2022/08/31 07:26:11;;;;;;;2.67;1.02;;;;;;;16.70;69.62;100759.72;5035932;28;20142;-82
2022/08/31 07:28:37;;;;;;;4.15;1.55;;;;;;;16.85;69.10;100755.31;5054275;28;20032;-84
2022/08/31 07:31:04;;;;;;;4.65;1.60;;;;;;;16.86;69.00;100758.84;5036937;28;20029;-83
2022/08/31 07:33:37;;;;;;;2.22;1.00;;;;;;;16.87;68.82;100764.00;5054049;28;20460;-83
2022/08/31 07:36:07;;;;;;;3.90;1.23;;;;;;;16.82;69.19;100756.03;5054581;28;20056;-81
2022/08/31 07:44:04;;;;;;;2.83;1.00;;;;;;;16.93;68.82;100751.53;5055529;28;20175;-82
2022/08/31 07:46:30;;;;;;;3.90;1.58;;;;;;;17.00;68.44;100757.19;5054939;28;20029;-83
2022/08/31 07:48:59;;;;;;;5.43;1.98;;;;;;;16.86;68.91;100756.91;5037067;28;20360;-83
2022/08/31 07:51:25;;;;;;;7.50;2.90;;;;;;;16.77;69.04;100765.34;5057553;28;20059;-83
2022/08/31 07:53:52;;;;;;;5.40;1.85;;;;;;;16.87;68.98;100763.19;5040767;28;20048;-82
2022/08/31 07:56:18;;;;;;;3.65;1.38;;;;;;;16.96;68.75;100761.81;5054720;28;20031;-83
2022/08/31 07:58:46;;;;;;;3.42;1.75;;;;;;;17.11;68.33;100768.41;5055854;28;20511;-82
2022/08/31 08:01:13;;;;;;;3.15;1.20;;;;;;;17.25;67.94;100765.13;5054832;28;20029;-82
2022/08/31 08:03:42;;;;;;;3.33;1.42;;;;;;;17.47;66.99;100775.41;5054906;28;20053;-82
2022/08/31 08:06:14;;;;;;;4.35;1.45;;;;;;;17.59;66.66;100775.22;5037888;28;20043;-83
2022/08/31 08:08:43;;;;;;;2.85;1.20;;;;;;;17.78;66.28;100776.34;5053438;28;20044;-81
2022/08/31 08:11:20;;;;;;;5.90;2.75;;;;;;;17.98;65.39;100783.41;5053839;28;20033;-81
2022/08/31 08:13:47;;;;;;;4.93;2.08;;;;;;;18.12;64.93;100775.34;5053296;28;20036;-78
2022/08/31 08:16:14;;;;;;;3.95;1.27;;;;;;;18.15;64.55;100782.09;5052732;28;20033;-80
2022/08/31 08:18:39;;;;;;;4.13;1.48;;;;;;;18.27;64.33;100779.91;5053425;28;20036;-80
2022/08/31 08:21:05;;;;;;;;;;;;;;;18.06;64.99;100790.63;5055658;28;20025;-80
2022/08/31 08:23:31;;;;;;;5.13;1.83;;;;;;;17.85;65.69;100793.03;5057629;28;20385;-79
2022/08/31 08:25:59;;;;;;;;;;;;;;;17.93;65.79;100797.47;5060319;28;20031;-80
2022/08/31 08:28:26;;;;;;;3.58;1.80;;;;;;;17.94;65.64;100786.09;5058179;28;20320;-80
2022/08/31 08:30:53;;;;;;;3.42;1.33;;;;;;;18.07;65.32;100794.97;5044422;28;20040;-80
2022/08/31 08:33:20;;;;;;;2.28;1.05;;;;;;;18.10;64.61;100794.22;5067255;28;20029;-81
2022/08/31 08:35:55;;;;;;;3.15;1.20;;;;;;;18.08;64.75;100796.53;5060539;28;20064;-80
2022/08/31 08:38:21;;;;;;;3.33;1.42;;;;;;;18.29;63.98;100788.59;5061086;28;20052;-81
2022/08/31 08:40:49;;;;;;;3.45;1.38;;;;;;;18.23;64.10;100786.56;5057976;28;20044;-81
2022/08/31 08:43:16;;;;;;;11.13;2.17;;;;;;;18.18;64.32;100797.91;5056775;28;20044;-80
2022/08/31 08:45:45;;;;;;;2.90;1.20;;;;;;;18.43;64.00;100792.75;5055516;28;20099;-80
2022/08/31 08:48:15;;;;;;;3.78;1.30;;;;;;;18.68;63.36;100791.19;5055496;28;20032;-80
2022/08/31 08:50:45;;;;;;;3.15;1.30;;;;;;;18.67;62.98;100795.13;5055808;28;20040;-81
2022/08/31 08:53:12;;;;;;;3.45;1.10;;;;;;;18.69;63.12;100795.53;5038338;28;20040;-79
2022/08/31 08:55:40;;;;;;;3.50;1.40;;;;;;;18.58;63.11;100805.59;5055423;28;20037;-80
2022/08/31 08:58:10;;;;;;;5.82;1.30;;;;;;;18.32;64.16;100804.44;5057165;28;20055;-83
2022/08/31 09:00:36;;;;;;;3.30;1.40;;;;;;;18.65;62.97;100802.97;5055788;28;20032;-80
2022/08/31 09:03:03;;;;;;;2.90;1.25;;;;;;;18.76;62.69;100801.13;5038449;28;20033;-81
2022/08/31 09:05:40;;;;;;;4.25;1.48;;;;;;;18.77;62.95;100801.94;5055395;28;20084;-81
2022/08/31 09:08:22;;;;;;;4.25;1.30;;;;;;;18.71;63.32;100807.00;5037371;28;20033;-82
2022/08/31 09:11:16;;;;;;;5.65;1.80;;;;;;;18.68;63.38;100799.47;5055460;28;20029;-80
2022/08/31 09:13:57;;;;;;;3.13;1.17;;;;;;;18.92;62.79;100801.75;5047099;28;20049;-80
2022/08/31 09:16:39;;;;;;;11.52;5.15;;;;;;;19.11;61.90;100800.00;5055050;28;20033;-80
2022/08/31 09:19:11;;;;;;;5.18;2.20;;;;;;;19.38;61.41;100796.00;5055088;28;20475;-80
2022/08/31 09:21:57;;;;;;;8.02;2.83;;;;;;;19.61;60.45;100787.56;5055278;28;20509;-80
2022/08/31 09:24:29;;;;;;;3.55;1.42;;;;;;;19.67;60.30;100782.53;5054717;28;20045;-80
2022/08/31 09:27:16;;;;;;;3.15;1.52;;;;;;;19.52;60.69;100787.88;5054948;28;20045;-81
2022/08/31 09:29:44;;;;;;;4.20;1.48;;;;;;;19.37;61.56;100786.13;5054655;28;20456;-79
2022/08/31 09:32:15;;;;;;;3.90;1.50;;;;;;;19.60;61.10;100786.00;5055046;28;20033;-79
2022/08/31 09:34:41;;;;;;;3.70;1.45;;;;;;;19.87;60.01;100783.88;5055283;28;20056;-83
2022/08/31 09:37:18;;;;;;;3.40;1.55;;;;;;;19.90;59.90;100783.13;5058141;28;20036;-85
2022/08/31 09:39:46;;;;;;;3.60;1.90;;;;;;;19.93;59.87;100779.59;5044709;28;20029;-84
2022/08/31 09:42:32;;;;;;;4.45;1.83;;;;;;;19.72;60.48;100785.72;5061834;28;20040;-84
2022/08/31 09:45:11;;;;;;;4.00;1.60;;;;;;;20.01;59.94;100784.00;5059839;28;20021;-88
2022/08/31 09:47:51;;;;;;;4.40;2.35;;;;;;;20.06;59.31;100783.66;5058750;28;20027;-83
2022/08/31 09:50:44;;;;;;;3.65;1.67;;;;;;;20.00;59.78;100782.44;5041267;28;20029;-86
2022/08/31 09:56:15;;;;;;;3.63;1.48;;;;;;;20.15;59.51;100780.53;5060392;28;20074;-84
2022/08/31 09:58:43;;;;;;;4.88;1.80;;;;;;;20.52;58.75;100777.69;5058464;28;20051;-85
2022/08/31 10:01:16;;;;;;;5.03;2.00;;;;;;;20.52;58.60;100776.91;5056630;28;20417;-82
2022/08/31 10:03:44;;;;;;;3.42;1.70;;;;;;;20.41;59.05;100779.59;5055753;28;20468;-84
2022/08/31 10:06:36;;;;;;;4.65;1.80;;;;;;;20.89;58.10;100779.44;5058024;28;20103;-82
2022/08/31 10:09:09;;;;;;;8.15;1.95;;;;;;;20.71;58.12;100780.16;5057135;28;20588;-83
2022/08/31 10:11:35;;;;;;;4.45;2.00;;;;;;;21.05;57.34;100776.34;5059773;28;20033;-86
2022/08/31 10:14:14;;;;;;;4.65;2.55;;;;;;;21.17;56.98;100778.78;5056417;28;20116;-80
2022/08/31 10:16:47;;;;;;;3.78;1.63;;;;;;;21.17;57.24;100762.16;5054565;28;20025;-79
2022/08/31 10:19:19;;;;;;;3.58;1.58;;;;;;;21.47;56.20;100778.47;5054820;28;20044;-83
2022/08/31 10:21:53;;;;;;;3.50;1.75;;;;;;;20.97;57.82;100776.31;5054153;28;20037;-88
2022/08/31 10:24:32;;;;;;;3.78;1.85;;;;;;;21.01;57.74;100770.81;5036986;28;20120;-84
2022/08/31 10:27:03;;;;;;;3.50;1.65;;;;;;;21.26;57.46;100782.78;5055219;28;20033;-84
2022/08/31 10:29:53;;;;;;;3.88;1.80;;;;;;;21.50;56.48;100777.69;5054731;28;20031;-84
2022/08/31 10:32:44;;;;;;;4.97;2.10;;;;;;;21.47;56.63;100770.94;5056020;28;20025;-82
2022/08/31 10:35:39;;;;;;;5.53;1.77;;;;;;;21.65;56.06;100765.44;5055899;28;20025;-84
2022/08/31 10:38:28;;;;;;;5.25;2.40;;;;;;;22.00;54.96;100772.19;5055127;28;20091;-83
2022/08/31 10:41:00;;;;;;;4.18;2.03;;;;;;;21.86;55.01;100765.47;5054811;28;20025;-86
2022/08/31 10:43:37;;;;;;;5.78;2.15;;;;;;;21.76;55.70;100769.03;5054668;28;20024;-84
2022/08/31 10:46:04;;;;;;;4.05;2.08;;;;;;;21.99;55.04;100770.59;5055513;28;20024;-85
2022/08/31 10:48:31;;;;;;;5.10;2.28;;;;;;;21.98;54.92;100767.03;5038376;28;20029;-85
2022/08/31 10:51:12;;;;;;;4.63;2.08;;;;;;;22.02;55.13;100755.97;5055178;28;20033;-84
2022/08/31 10:54:05;;;;;;;4.28;2.10;;;;;;;22.19;54.64;100760.75;5055593;28;20182;-86
2022/08/31 10:57:03;;;;;;;5.10;2.38;;;;;;;22.03;55.13;100769.44;5055093;28;20025;-84
2022/08/31 10:59:51;;;;;;;7.40;2.10;;;;;;;21.99;55.02;100763.06;5054964;28;20029;-84
2022/08/31 11:02:38;;;;;;;3.72;1.92;;;;;;;22.46;53.93;100764.63;5055542;28;20029;-83
2022/08/31 11:05:25;;;;;;;7.85;2.47;;;;;;;22.66;53.27;100761.41;5055469;28;20076;-84
2022/08/31 11:08:18;;;;;;;5.50;2.10;;;;;;;22.77;51.97;100776.06;5055935;28;20028;-86
2022/08/31 11:10:55;;;;;;;4.13;1.83;;;;;;;22.80;52.71;100772.47;5056243;28;20033;-84
2022/08/31 11:13:20;;;;;;;;;;;;;;;23.05;51.30;100762.09;5060678;28;20387;-82
2022/08/31 11:16:12;;;;;;;4.33;1.80;;;;;;;23.13;51.24;100764.81;5059769;28;19915;-85
2022/08/31 11:19:06;;;;;;;3.92;1.77;;;;;;;22.99;50.89;100771.22;5056078;28;20039;-88
2022/08/31 11:22:00;;;;;;;4.65;1.80;;;;;;;22.52;52.21;100765.84;5054597;28;20190;-85
2022/08/31 11:24:54;;;;;;;3.70;1.50;;;;;;;22.60;52.41;100763.03;5055039;28;20025;-85
2022/08/31 11:27:38;;;;;;;4.22;1.58;;;;;;;22.40;52.61;100768.22;5036596;28;20033;-82
2022/08/31 11:30:23;;;;;;;5.90;2.28;;;;;;;22.05;53.41;100767.09;5054163;28;20391;-85
2022/08/31 11:32:59;;;;;;;3.88;1.80;;;;;;;21.72;54.06;100764.69;5053646;28;20037;-84
2022/08/31 11:35:59;;;;;;;5.90;1.90;;;;;;;21.81;54.56;100762.28;5037201;28;20029;-85
2022/08/31 11:38:40;;;;;;;3.25;1.63;;;;;;;21.97;54.56;100762.69;5056327;28;20044;-82
2022/08/31 11:41:09;;;;;;;4.13;1.75;;;;;;;21.89;54.37;100759.13;5060346;28;20096;-82
2022/08/31 11:43:35;;;;;;;3.75;1.38;;;;;;;21.75;54.90;100759.13;5054663;28;20062;-83
2022/08/31 11:46:24;;;;;;;4.07;1.95;;;;;;;21.93;54.00;100753.59;5055007;28;20029;-81
2022/08/31 11:48:49;;;;;;;4.35;2.08;;;;;;;22.13;53.64;100751.22;5055673;28;20032;-87
2022/08/31 11:51:40;;;;;;;4.15;1.58;;;;;;;22.43;53.32;100754.34;5057644;28;20368;-85
2022/08/31 11:54:25;;;;;;;5.30;1.98;;;;;;;22.80;52.06;100751.06;5057683;28;20029;-84
2022/08/31 11:56:55;;;;;;;4.10;1.80;;;;;;;22.78;51.73;100747.09;5053748;28;20048;-83